Time;durP1;ratioP1;P1;durP2;ratioP2;P2;SDS_P1;SDS_P2;PMS_P1;PMS_P2;Temp;Humidity;BMP_temperature;BMP_pressure;BME280_temperature;BME280_humidity;BME280_pressure;Samples;Min_cycle;Max_cycle;Signal;HPM_P1;HPM_P2
2021/01/11 00:01:59;;;;;;;22.50;17.13;;;;;;;;;;5020990;28;20508;-85
2021/01/11 00:04:28;;;;;;;22.08;17.15;;;;;;;;;;5018534;28;20225;-86
2021/01/11 00:06:54;;;;;;;26.67;17.83;;;;;;;;;;5034936;28;20214;-85
2021/01/11 00:09:20;;;;;;;25.45;19.08;;;;;;;;;;5038444;28;20606;-85
2021/01/11 00:11:46;;;;;;;26.40;18.52;;;;;;;;;;5027652;28;20174;-85
2021/01/11 00:14:12;;;;;;;23.98;18.42;;;;;;;;;;5019475;28;20217;-85
2021/01/11 00:16:38;;;;;;;25.30;18.88;;;;;;;;;;5020939;28;20182;-86
2021/01/11 00:19:04;;;;;;;22.55;17.00;;;;;;;;;;5020978;28;20669;-86
2021/01/11 00:21:30;;;;;;;29.08;20.17;;;;;;;;;;5034622;28;20222;-87
2021/01/11 00:23:57;;;;;;;25.55;18.30;;;;;;;;;;5027090;28;20170;-86
2021/01/11 00:26:23;;;;;;;25.40;18.95;;;;;;;;;;5033499;28;20190;-86
2021/01/11 00:28:49;;;;;;;25.17;18.55;;;;;;;;;;5021053;28;20191;-87
2021/01/11 00:31:25;;;;;;;28.77;17.90;;;;;;;;;;5018831;28;20183;-86
2021/01/11 00:33:52;;;;;;;24.20;18.27;;;;;;;;;;5034454;28;20341;-85
2021/01/11 00:36:18;;;;;;;29.33;18.58;;;;;;;;;;5022535;28;20188;-85
2021/01/11 00:38:44;;;;;;;24.45;17.90;;;;;;;;;;5029163;28;20179;-86
2021/01/11 00:41:16;;;;;;;23.90;17.05;;;;;;;;;;5031627;28;20190;-86
2021/01/11 00:43:42;;;;;;;25.55;18.48;;;;;;;;;;5016910;28;20241;-86
2021/01/11 00:46:08;;;;;;;29.30;20.05;;;;;;;;;;5018492;28;20190;-82
2021/01/11 00:48:34;;;;;;;24.05;17.75;;;;;;;;;;5033883;28;20207;-87
2021/01/11 00:51:00;;;;;;;29.13;19.35;;;;;;;;;;5025437;28;20669;-86
2021/01/11 00:53:26;;;;;;;25.42;17.30;;;;;;;;;;5037323;28;20237;-86
2021/01/11 00:55:52;;;;;;;25.98;17.50;;;;;;;;;;5016612;28;20210;-86
2021/01/11 00:58:18;;;;;;;25.67;20.13;;;;;;;;;;5020975;28;20201;-86
2021/01/11 01:00:44;;;;;;;30.25;20.30;;;;;;;;;;5037376;28;20229;-85
2021/01/11 01:03:10;;;;;;;35.63;19.67;;;;;;;;;;5021980;28;20191;-86
2021/01/11 01:05:36;;;;;;;32.92;19.73;;;;;;;;;;5039897;28;20205;-86
2021/01/11 01:08:02;;;;;;;25.60;19.25;;;;;;;;;;5020308;28;20229;-86
2021/01/11 01:10:28;;;;;;;25.48;19.33;;;;;;;;;;5025788;28;20186;-87
2021/01/11 01:12:54;;;;;;;30.02;21.63;;;;;;;;;;5020601;28;20182;-86
2021/01/11 01:15:20;;;;;;;30.33;20.38;;;;;;;;;;5032988;28;20174;-86
2021/01/11 01:17:46;;;;;;;29.42;20.52;;;;;;;;;;5027968;28;20182;-86
2021/01/11 01:20:15;;;;;;;33.45;22.15;;;;;;;;;;5032278;28;20190;-87
2021/01/11 01:22:48;;;;;;;32.75;21.52;;;;;;;;;;5016437;28;20194;-86
2021/01/11 01:25:15;;;;;;;29.10;20.13;;;;;;;;;;5020401;28;20186;-87
2021/01/11 01:27:41;;;;;;;29.63;21.27;;;;;;;;;;5036738;28;20202;-87
2021/01/11 01:30:09;;;;;;;26.73;20.63;;;;;;;;;;5023331;28;20226;-87
2021/01/11 01:32:35;;;;;;;38.40;23.25;;;;;;;;;;5035279;28;20174;-87
2021/01/11 01:35:01;;;;;;;31.25;22.42;;;;;;;;;;5020487;28;20206;-87
2021/01/11 01:37:27;;;;;;;31.90;23.77;;;;;;;;;;5018610;28;20183;-87
2021/01/11 01:39:53;;;;;;;37.47;22.65;;;;;;;;;;5020999;28;20186;-87
2021/01/11 01:42:19;;;;;;;31.13;23.63;;;;;;;;;;5017697;28;20671;-87
2021/01/11 01:44:45;;;;;;;32.10;22.55;;;;;;;;;;5028381;28;20225;-87
2021/01/11 01:47:11;;;;;;;33.38;22.17;;;;;;;;;;5020984;28;20205;-87
2021/01/11 01:49:37;;;;;;;27.90;20.98;;;;;;;;;;5026491;28;20182;-88
2021/01/11 01:52:04;;;;;;;29.90;21.10;;;;;;;;;;5035722;28;20186;-88
2021/01/11 01:54:30;;;;;;;28.50;21.02;;;;;;;;;;5036396;28;20222;-88
2021/01/11 01:56:56;;;;;;;33.10;23.70;;;;;;;;;;5019695;28;20194;-88
2021/01/11 01:59:22;;;;;;;36.63;23.70;;;;;;;;;;5032293;28;20186;-87
2021/01/11 02:01:53;;;;;;;28.50;20.88;;;;;;;;;;5019436;28;20313;-88
2021/01/11 02:04:18;;;;;;;27.30;20.10;;;;;;;;;;5016945;28;20191;-87
2021/01/11 02:06:45;;;;;;;31.48;23.00;;;;;;;;;;5031891;28;20282;-88
2021/01/11 02:09:19;;;;;;;28.42;22.73;;;;;;;;;;5021622;28;20189;-88
2021/01/11 02:11:51;;;;;;;31.70;21.55;;;;;;;;;;5036257;28;20663;-88
2021/01/11 02:14:23;;;;;;;32.90;22.10;;;;;;;;;;5031715;28;20190;-88
2021/01/11 02:16:52;;;;;;;29.08;22.55;;;;;;;;;;5019653;28;20258;-87
2021/01/11 02:19:18;;;;;;;38.13;23.63;;;;;;;;;;5022689;28;20195;-87
2021/01/11 02:21:57;;;;;;;32.93;24.00;;;;;;;;;;5035229;28;20182;-87
2021/01/11 02:24:41;;;;;;;28.75;21.88;;;;;;;;;;5017346;28;20476;-88
2021/01/11 02:27:17;;;;;;;33.28;23.83;;;;;;;;;;5021696;28;20205;-88
2021/01/11 02:29:49;;;;;;;29.92;23.02;;;;;;;;;;5036134;28;20185;-88
2021/01/11 02:32:16;;;;;;;28.52;21.85;;;;;;;;;;5020502;28;20174;-88
2021/01/11 02:34:42;;;;;;;34.90;23.33;;;;;;;;;;5021054;28;20232;-86
2021/01/11 02:37:08;;;;;;;31.75;22.83;;;;;;;;;;5033080;28;20392;-88
2021/01/11 02:39:34;;;;;;;29.10;22.52;;;;;;;;;;5017848;28;20191;-88
2021/01/11 02:42:00;;;;;;;30.02;22.27;;;;;;;;;;5017778;28;20182;-87
2021/01/11 02:44:26;;;;;;;34.28;23.58;;;;;;;;;;5032008;28;20209;-88
2021/01/11 02:46:52;;;;;;;31.02;22.15;;;;;;;;;;5019088;28;20198;-88
2021/01/11 02:49:24;;;;;;;34.22;26.13;;;;;;;;;;5020708;28;20269;-88
2021/01/11 02:51:56;;;;;;;31.10;23.02;;;;;;;;;;5020395;28;20182;-89
2021/01/11 02:54:27;;;;;;;31.63;23.98;;;;;;;;;;5034460;28;20190;-88
2021/01/11 02:56:55;;;;;;;33.00;23.63;;;;;;;;;;5028371;28;20178;-85
2021/01/11 02:59:21;;;;;;;28.02;22.63;;;;;;;;;;5040582;28;20210;-87
2021/01/11 03:01:50;;;;;;;35.20;23.57;;;;;;;;;;5025660;28;20186;-87
2021/01/11 03:04:21;;;;;;;37.20;24.33;;;;;;;;;;5022600;28;20579;-88
2021/01/11 03:06:57;;;;;;;31.45;23.73;;;;;;;;;;5028134;28;20206;-87
2021/01/11 03:09:23;;;;;;;34.47;23.00;;;;;;;;;;5033185;28;20257;-84
2021/01/11 03:11:49;;;;;;;34.00;24.17;;;;;;;;;;5022250;28;20324;-87
2021/01/11 03:14:15;;;;;;;32.22;22.83;;;;;;;;;;5035695;28;20643;-88
2021/01/11 03:16:41;;;;;;;33.40;24.25;;;;;;;;;;5027364;28;20274;-88
2021/01/11 03:19:07;;;;;;;28.10;23.33;;;;;;;;;;5036580;28;20190;-88
2021/01/11 03:21:36;;;;;;;32.55;23.92;;;;;;;;;;5036845;28;20187;-87
2021/01/11 03:24:03;;;;;;;30.92;22.85;;;;;;;;;;5020315;28;20178;-87
2021/01/11 03:26:29;;;;;;;31.73;23.35;;;;;;;;;;5039769;28;20276;-88
2021/01/11 03:28:55;;;;;;;35.83;23.63;;;;;;;;;;5022366;28;20636;-87
2021/01/11 03:31:21;;;;;;;33.25;24.60;;;;;;;;;;5020294;28;20183;-87
2021/01/11 03:33:47;;;;;;;36.05;23.48;;;;;;;;;;5039710;28;20667;-87
2021/01/11 03:36:13;;;;;;;34.03;23.50;;;;;;;;;;5038969;28;20832;-87
2021/01/11 03:38:40;;;;;;;39.10;25.25;;;;;;;;;;5036900;28;20183;-88
2021/01/11 03:41:08;;;;;;;31.45;22.80;;;;;;;;;;5033476;28;20198;-88
2021/01/11 03:43:34;;;;;;;33.53;23.83;;;;;;;;;;5022025;28;20178;-87
2021/01/11 03:46:00;;;;;;;33.67;22.67;;;;;;;;;;5022069;28;20735;-87
2021/01/11 03:48:26;;;;;;;39.03;25.13;;;;;;;;;;5020462;28;20206;-86
2021/01/11 03:50:52;;;;;;;41.85;25.48;;;;;;;;;;5041380;28;20216;-87
2021/01/11 03:53:18;;;;;;;35.72;24.63;;;;;;;;;;5034406;28;20175;-87
2021/01/11 03:55:44;;;;;;;36.75;25.75;;;;;;;;;;5025790;28;20723;-87
2021/01/11 03:58:10;;;;;;;34.72;23.38;;;;;;;;;;5026460;28;20191;-87
2021/01/11 04:00:36;;;;;;;36.07;25.47;;;;;;;;;;5036994;28;20326;-87
2021/01/11 04:03:05;;;;;;;28.27;22.27;;;;;;;;;;5025604;28;20433;-86
2021/01/11 04:05:31;;;;;;;33.38;21.55;;;;;;;;;;5035145;28;20201;-86
2021/01/11 04:07:58;;;;;;;34.33;25.27;;;;;;;;;;5024046;28;20245;-86
2021/01/11 04:10:24;;;;;;;35.45;25.30;;;;;;;;;;5017650;28;20194;-87
2021/01/11 04:12:50;;;;;;;32.30;25.35;;;;;;;;;;5034098;28;20302;-87
2021/01/11 04:15:16;;;;;;;27.70;20.92;;;;;;;;;;5023454;28;20183;-87
2021/01/11 04:17:43;;;;;;;35.03;24.45;;;;;;;;;;5042218;28;20229;-86
2021/01/11 04:20:09;;;;;;;34.72;23.85;;;;;;;;;;5021659;28;20261;-87
2021/01/11 04:22:35;;;;;;;37.28;23.55;;;;;;;;;;5022784;28;20190;-84
2021/01/11 04:25:01;;;;;;;34.58;23.90;;;;;;;;;;5019235;28;20245;-86
2021/01/11 04:27:27;;;;;;;34.38;22.95;;;;;;;;;;5037387;28;20211;-86
2021/01/11 04:29:53;;;;;;;33.13;21.55;;;;;;;;;;5026202;28;20181;-85
2021/01/11 04:32:19;;;;;;;34.30;24.00;;;;;;;;;;5033965;28;20225;-86
2021/01/11 04:34:45;;;;;;;32.08;24.50;;;;;;;;;;5020793;28;20201;-86
2021/01/11 04:37:11;;;;;;;35.35;24.52;;;;;;;;;;5018620;28;20229;-85
2021/01/11 04:39:37;;;;;;;38.75;23.30;;;;;;;;;;5035791;28;20197;-85
2021/01/11 04:42:06;;;;;;;34.53;22.75;;;;;;;;;;5018563;28;20187;-86
2021/01/11 04:44:33;;;;;;;33.38;22.83;;;;;;;;;;5034467;28;20200;-85
2021/01/11 04:46:59;;;;;;;33.40;22.58;;;;;;;;;;5020737;28;20212;-86
2021/01/11 04:49:26;;;;;;;36.55;24.63;;;;;;;;;;5020941;28;20251;-86
2021/01/11 04:51:52;;;;;;;39.15;25.35;;;;;;;;;;5037146;28;20540;-85
2021/01/11 04:54:18;;;;;;;34.22;24.13;;;;;;;;;;5033040;28;20198;-85
2021/01/11 04:56:46;;;;;;;32.35;24.65;;;;;;;;;;5028670;28;20185;-85
2021/01/11 04:59:17;;;;;;;35.78;25.17;;;;;;;;;;5032293;28;20183;-86
2021/01/11 05:01:43;;;;;;;26.95;21.77;;;;;;;;;;5016751;28;20206;-85
2021/01/11 05:04:11;;;;;;;34.17;24.30;;;;;;;;;;5018213;28;20199;-86
2021/01/11 05:06:37;;;;;;;33.33;24.80;;;;;;;;;;5037215;28;20197;-86
2021/01/11 05:09:06;;;;;;;33.70;24.90;;;;;;;;;;5022873;28;20194;-84
2021/01/11 05:11:33;;;;;;;32.35;23.15;;;;;;;;;;5033225;28;20198;-85
2021/01/11 05:13:59;;;;;;;36.10;23.15;;;;;;;;;;5019991;28;20213;-86
2021/01/11 05:16:25;;;;;;;33.72;23.83;;;;;;;;;;5026437;28;20178;-85
2021/01/11 05:18:54;;;;;;;37.03;24.58;;;;;;;;;;5036357;28;20217;-85
2021/01/11 05:21:38;;;;;;;29.20;23.20;;;;;;;;;;5032535;28;20189;-86
2021/01/11 05:24:07;;;;;;;29.95;23.17;;;;;;;;;;5017997;28;20313;-86
2021/01/11 05:26:39;;;;;;;29.67;22.95;;;;;;;;;;5033768;28;20266;-86
2021/01/11 05:29:17;;;;;;;30.83;23.65;;;;;;;;;;5020261;28;20196;-85
2021/01/11 05:31:57;;;;;;;28.25;21.52;;;;;;;;;;5017164;28;20191;-86
2021/01/11 05:34:23;;;;;;;30.02;24.17;;;;;;;;;;5016695;28;20834;-82
2021/01/11 05:36:49;;;;;;;26.55;20.40;;;;;;;;;;5032882;28;20209;-85
2021/01/11 05:39:15;;;;;;;24.88;20.63;;;;;;;;;;5031616;28;20775;-85
2021/01/11 05:41:42;;;;;;;33.75;23.00;;;;;;;;;;5019556;28;20185;-85
2021/01/11 05:44:12;;;;;;;29.92;22.30;;;;;;;;;;5015702;28;20190;-85
2021/01/11 05:46:39;;;;;;;30.70;22.58;;;;;;;;;;5019478;28;20209;-85
2021/01/11 05:49:06;;;;;;;28.42;20.88;;;;;;;;;;5018939;28;20202;-85
2021/01/11 05:51:32;;;;;;;30.67;21.40;;;;;;;;;;5019636;28;20222;-85
2021/01/11 05:53:59;;;;;;;28.92;20.23;;;;;;;;;;5021887;28;20194;-84
2021/01/11 05:56:25;;;;;;;26.17;20.10;;;;;;;;;;5024482;28;20205;-84
2021/01/11 05:59:07;;;;;;;25.13;19.10;;;;;;;;;;5021851;28;20193;-84
2021/01/11 06:01:35;;;;;;;28.80;21.83;;;;;;;;;;5019422;28;20186;-85
2021/01/11 06:04:01;;;;;;;31.85;23.05;;;;;;;;;;5018466;28;20193;-84
2021/01/11 06:06:27;;;;;;;485.88;249.52;;;;;;;;;;5021507;28;20189;-84
2021/01/11 06:08:54;;;;;;;59.30;44.20;;;;;;;;;;5025648;28;20174;-84
2021/01/11 06:11:25;;;;;;;36.20;30.48;;;;;;;;;;5034143;28;20189;-84
2021/01/11 06:13:51;;;;;;;33.10;27.15;;;;;;;;;;5018452;28;20249;-82
2021/01/11 06:16:21;;;;;;;27.80;21.20;;;;;;;;;;5019607;28;20204;-84
2021/01/11 06:18:49;;;;;;;23.55;18.27;;;;;;;;;;5035909;28;20205;-84
2021/01/11 06:21:15;;;;;;;80.72;71.97;;;;;;;;;;5019687;28;20189;-84
2021/01/11 06:23:41;;;;;;;36.72;32.40;;;;;;;;;;5023188;28;20258;-84
2021/01/11 06:26:25;;;;;;;33.05;26.95;;;;;;;;;;5021459;28;20182;-84
2021/01/11 06:28:51;;;;;;;34.55;26.52;;;;;;;;;;5013981;28;20197;-85
2021/01/11 06:31:17;;;;;;;27.20;20.02;;;;;;;;;;5019658;28;20186;-84
2021/01/11 06:33:44;;;;;;;31.30;28.25;;;;;;;;;;5020539;28;20209;-84
2021/01/11 06:36:24;;;;;;;29.75;21.55;;;;;;;;;;5020282;28;20187;-84
2021/01/11 06:38:51;;;;;;;29.38;24.13;;;;;;;;;;5035331;28;20213;-83
2021/01/11 06:41:18;;;;;;;27.95;22.02;;;;;;;;;;5031152;28;20201;-84
2021/01/11 06:43:51;;;;;;;26.65;22.50;;;;;;;;;;5018761;28;20623;-83
2021/01/11 06:46:29;;;;;;;27.27;19.27;;;;;;;;;;5018812;28;20209;-84
2021/01/11 06:49:05;;;;;;;24.25;17.20;;;;;;;;;;5034093;28;20200;-83
2021/01/11 06:51:31;;;;;;;26.35;20.67;;;;;;;;;;5032556;28;20182;-84
2021/01/11 06:54:13;;;;;;;26.15;17.75;;;;;;;;;;5027137;28;20179;-83
2021/01/11 06:56:41;;;;;;;19.15;16.88;;;;;;;;;;5033032;28;20198;-84
2021/01/11 06:59:16;;;;;;;24.95;18.00;;;;;;;;;;5029351;28;20182;-83
2021/01/11 07:01:43;;;;;;;23.33;18.33;;;;;;;;;;5015393;28;20214;-84
2021/01/11 07:04:10;;;;;;;21.65;19.35;;;;;;;;;;5015246;28;20194;-84
2021/01/11 07:06:37;;;;;;;22.77;18.25;;;;;;;;;;5034626;28;20202;-84
2021/01/11 07:09:04;;;;;;;22.20;19.02;;;;;;;;;;5014288;28;20675;-84
2021/01/11 07:11:40;;;;;;;24.92;22.33;;;;;;;;;;5031276;28;20186;-83
2021/01/11 07:14:07;;;;;;;29.10;24.92;;;;;;;;;;5014582;28;20544;-84
2021/01/11 07:16:40;;;;;;;27.60;20.83;;;;;;;;;;5020146;28;20171;-83
2021/01/11 07:19:06;;;;;;;21.98;18.45;;;;;;;;;;5017393;28;20193;-85
2021/01/11 07:21:35;;;;;;;21.48;17.55;;;;;;;;;;5032223;28;20213;-84
2021/01/11 07:24:03;;;;;;;23.55;19.75;;;;;;;;;;5022745;28;20175;-84
2021/01/11 07:26:29;;;;;;;21.00;17.13;;;;;;;;;;5030415;28;20178;-84
2021/01/11 07:28:59;;;;;;;27.08;20.63;;;;;;;;;;5017799;28;20183;-84
2021/01/11 07:31:45;;;;;;;26.42;18.23;;;;;;;;;;5017266;28;20182;-85
2021/01/11 07:34:15;;;;;;;23.77;17.35;;;;;;;;;;5015493;28;20191;-82
2021/01/11 07:36:41;;;;;;;23.05;18.25;;;;;;;;;;5035264;28;20437;-84
2021/01/11 07:39:07;;;;;;;22.98;17.02;;;;;;;;;;5036512;28;20242;-85
2021/01/11 07:41:33;;;;;;;22.08;17.67;;;;;;;;;;5036178;28;20171;-84
2021/01/11 07:44:12;;;;;;;24.77;19.75;;;;;;;;;;5019720;28;20190;-82
2021/01/11 07:46:38;;;;;;;22.42;17.90;;;;;;;;;;5021844;28;20182;-84
2021/01/11 07:49:14;;;;;;;22.70;18.20;;;;;;;;;;5021793;28;20463;-82
2021/01/11 07:51:40;;;;;;;22.60;18.33;;;;;;;;;;5029616;28;20431;-82
2021/01/11 07:54:10;;;;;;;26.83;21.55;;;;;;;;;;5028572;28;20620;-83
2021/01/11 07:56:36;;;;;;;22.38;16.88;;;;;;;;;;5034890;28;20178;-83
2021/01/11 07:59:06;;;;;;;22.85;17.88;;;;;;;;;;5036705;28;20194;-83
2021/01/11 08:01:33;;;;;;;20.85;16.20;;;;;;;;;;5036090;28;20194;-83
2021/01/11 08:03:59;;;;;;;28.33;19.40;;;;;;;;;;5021230;28;20389;-84
2021/01/11 08:06:26;;;;;;;24.02;17.73;;;;;;;;;;5021182;28;20200;-84
2021/01/11 08:08:54;;;;;;;21.27;17.25;;;;;;;;;;5019546;28;20186;-84
2021/01/11 08:11:21;;;;;;;20.45;16.60;;;;;;;;;;5024128;28;20198;-82
2021/01/11 08:13:47;;;;;;;20.38;16.35;;;;;;;;;;5022910;28;20183;-84
2021/01/11 08:16:14;;;;;;;25.15;18.88;;;;;;;;;;5019287;28;20183;-83
2021/01/11 08:18:40;;;;;;;25.60;20.38;;;;;;;;;;5038593;28;20182;-84
2021/01/11 08:21:10;;;;;;;18.58;15.77;;;;;;;;;;5023670;28;20285;-84
2021/01/11 08:23:36;;;;;;;21.77;15.90;;;;;;;;;;5039685;28;20261;-84
2021/01/11 08:26:08;;;;;;;18.13;15.32;;;;;;;;;;5032884;28;20270;-84
2021/01/11 08:28:34;;;;;;;18.33;14.68;;;;;;;;;;5031935;28;20199;-84
2021/01/11 08:31:01;;;;;;;20.98;15.50;;;;;;;;;;5025910;28;20202;-83
2021/01/11 08:33:28;;;;;;;17.17;14.70;;;;;;;;;;5038894;28;20222;-83
2021/01/11 08:36:14;;;;;;;21.17;18.00;;;;;;;;;;5019096;28;20659;-82
2021/01/11 08:38:59;;;;;;;25.35;18.02;;;;;;;;;;5039764;28;20544;-84
2021/01/11 08:41:26;;;;;;;19.48;16.10;;;;;;;;;;5024498;28;20683;-81
2021/01/11 08:43:52;;;;;;;22.38;15.40;;;;;;;;;;5017935;28;20190;-82
2021/01/11 08:46:18;;;;;;;22.45;15.88;;;;;;;;;;5009955;28;20226;-82
2021/01/11 08:48:44;;;;;;;19.27;16.70;;;;;;;;;;5057838;28;20244;-82
2021/01/11 08:51:10;;;;;;;20.02;16.13;;;;;;;;;;5041238;28;25287;-83
2021/01/11 08:53:36;;;;;;;21.60;15.90;;;;;;;;;;5058556;28;20644;-83
2021/01/11 08:56:07;;;;;;;24.50;17.00;;;;;;;;;;5038698;28;20201;-82
2021/01/11 08:58:54;;;;;;;18.42;15.95;;;;;;;;;;5034105;28;20525;-82
2021/01/11 09:01:22;;;;;;;22.23;16.33;;;;;;;;;;5038241;28;20231;-83
2021/01/11 09:03:55;;;;;;;20.58;17.08;;;;;;;;;;5043098;28;20651;-81
2021/01/11 09:06:41;;;;;;;19.35;16.33;;;;;;;;;;5056283;28;20541;-83
2021/01/11 09:09:07;;;;;;;22.13;17.05;;;;;;;;;;5041085;28;20178;-82
2021/01/11 09:11:33;;;;;;;19.48;15.75;;;;;;;;;;5042673;28;20201;-82
2021/01/11 09:14:06;;;;;;;20.55;17.38;;;;;;;;;;5039826;28;20209;-82
2021/01/11 09:16:32;;;;;;;23.27;16.30;;;;;;;;;;5036113;28;20666;-82
2021/01/11 09:19:24;;;;;;;20.60;16.27;;;;;;;;;;5039822;28;20203;-81
2021/01/11 09:21:58;;;;;;;22.40;17.38;;;;;;;;;;5037157;28;20257;-81
2021/01/11 09:24:24;;;;;;;18.48;15.73;;;;;;;;;;5052119;28;20205;-82
2021/01/11 09:26:52;;;;;;;24.08;17.60;;;;;;;;;;5037360;28;20206;-82
2021/01/11 09:29:18;;;;;;;19.30;14.95;;;;;;;;;;5056686;28;20186;-82
2021/01/11 09:31:44;;;;;;;23.02;16.83;;;;;;;;;;5033767;28;20186;-82
2021/01/11 09:34:10;;;;;;;20.45;16.30;;;;;;;;;;5040160;28;20185;-83
2021/01/11 09:36:37;;;;;;;19.27;15.00;;;;;;;;;;5040279;28;20209;-82
2021/01/11 09:39:04;;;;;;;20.58;16.30;;;;;;;;;;5039361;28;20185;-83
2021/01/11 09:41:30;;;;;;;18.55;14.60;;;;;;;;;;5038776;28;20178;-81
2021/01/11 09:43:56;;;;;;;18.70;15.18;;;;;;;;;;5042245;28;20196;-82
2021/01/11 09:46:24;;;;;;;21.10;16.10;;;;;;;;;;5039086;28;20190;-84
2021/01/11 09:48:50;;;;;;;19.33;14.02;;;;;;;;;;5039388;28;20194;-81
2021/01/11 09:51:16;;;;;;;18.73;14.27;;;;;;;;;;5036201;28;20227;-82
2021/01/11 09:53:42;;;;;;;21.48;15.40;;;;;;;;;;5039130;28;20491;-82
2021/01/11 09:56:08;;;;;;;17.42;14.50;;;;;;;;;;5052331;28;20257;-82
2021/01/11 09:58:34;;;;;;;35.15;23.33;;;;;;;;;;5049492;28;20187;-81
2021/01/11 10:01:00;;;;;;;33.15;25.02;;;;;;;;;;5038605;28;20229;-83
2021/01/11 10:03:26;;;;;;;43.63;28.92;;;;;;;;;;5037379;28;20235;-82
2021/01/11 10:05:59;;;;;;;46.45;29.80;;;;;;;;;;5041759;28;20252;-82
2021/01/11 10:08:25;;;;;;;46.25;32.58;;;;;;;;;;5041155;28;20235;-83
2021/01/11 10:10:51;;;;;;;41.92;30.05;;;;;;;;;;5040486;28;20182;-84
2021/01/11 10:13:17;;;;;;;41.08;28.75;;;;;;;;;;5037783;28;20192;-82
2021/01/11 10:15:42;;;;;;;42.03;28.40;;;;;;;;;;5042508;28;20182;-83
2021/01/11 10:18:09;;;;;;;37.67;28.50;;;;;;;;;;5038962;28;20205;-83
2021/01/11 10:20:35;;;;;;;31.13;24.08;;;;;;;;;;5057779;28;20425;-82
2021/01/11 10:23:00;;;;;;;33.38;24.73;;;;;;;;;;5055553;28;20266;-83
2021/01/11 10:25:27;;;;;;;36.78;25.63;;;;;;;;;;5039472;28;20192;-85
2021/01/11 10:27:54;;;;;;;33.25;24.75;;;;;;;;;;5038624;28;20212;-83
2021/01/11 10:30:20;;;;;;;36.83;24.02;;;;;;;;;;5040506;28;20594;-85
2021/01/11 10:32:46;;;;;;;33.88;25.77;;;;;;;;;;5044297;28;20229;-82
2021/01/11 10:35:13;;;;;;;32.72;25.52;;;;;;;;;;5040323;28;20212;-83
2021/01/11 10:37:38;;;;;;;41.20;27.77;;;;;;;;;;5052103;28;20217;-84
2021/01/11 10:40:05;;;;;;;38.80;27.42;;;;;;;;;;5053283;28;20185;-83
2021/01/11 10:42:31;;;;;;;43.55;28.30;;;;;;;;;;5034768;28;20182;-83
2021/01/11 10:44:58;;;;;;;35.42;26.38;;;;;;;;;;5036541;28;20213;-84
2021/01/11 10:47:24;;;;;;;33.50;24.20;;;;;;;;;;5038457;28;20189;-83
2021/01/11 10:49:50;;;;;;;33.70;25.47;;;;;;;;;;5037109;28;20205;-82
2021/01/11 10:52:16;;;;;;;34.83;22.60;;;;;;;;;;5038071;28;20884;-81
2021/01/11 10:54:42;;;;;;;31.25;22.38;;;;;;;;;;5038158;28;20201;-84
2021/01/11 10:57:08;;;;;;;34.17;23.77;;;;;;;;;;5038585;28;20505;-83
2021/01/11 10:59:34;;;;;;;36.67;23.00;;;;;;;;;;5056266;28;20221;-84
2021/01/11 11:02:00;;;;;;;23.40;17.43;;;;;;;;;;5054757;28;20515;-83
2021/01/11 11:04:26;;;;;;;19.67;14.80;;;;;;;;;;5056872;28;20818;-84
2021/01/11 11:06:56;;;;;;;20.27;14.45;;;;;;;;;;5039181;28;20289;-83
2021/01/11 11:09:22;;;;;;;16.98;14.20;;;;;;;;;;5040551;28;20182;-82
2021/01/11 11:11:52;;;;;;;19.03;14.47;;;;;;;;;;5040709;28;20212;-82
2021/01/11 11:14:18;;;;;;;21.27;15.10;;;;;;;;;;5056722;28;20435;-83
2021/01/11 11:16:44;;;;;;;21.63;16.30;;;;;;;;;;5043057;28;20186;-81
2021/01/11 11:19:10;;;;;;;19.80;15.53;;;;;;;;;;5044824;28;20282;-84
2021/01/11 11:21:36;;;;;;;22.65;18.40;;;;;;;;;;5041234;28;20438;-83
2021/01/11 11:24:02;;;;;;;27.40;20.50;;;;;;;;;;5045186;28;20217;-83
2021/01/11 11:26:28;;;;;;;31.00;21.40;;;;;;;;;;5059766;28;20189;-83
2021/01/11 11:28:54;;;;;;;32.17;21.27;;;;;;;;;;5057346;28;20581;-83
2021/01/11 11:31:21;;;;;;;44.53;28.25;;;;;;;;;;5059493;28;20608;-83
2021/01/11 11:33:47;;;;;;;38.45;24.35;;;;;;;;;;5043970;28;20185;-84
2021/01/11 11:36:13;;;;;;;39.22;24.13;;;;;;;;;;5039289;28;20178;-84
2021/01/11 11:38:39;;;;;;;40.53;27.40;;;;;;;;;;5045741;28;20190;-83
2021/01/11 11:41:05;;;;;;;40.75;27.58;;;;;;;;;;5040894;28;20201;-83
2021/01/11 11:43:31;;;;;;;26.30;21.30;;;;;;;;;;5039015;28;20185;-83
2021/01/11 11:45:57;;;;;;;31.65;20.50;;;;;;;;;;5030856;28;20982;-84
2021/01/11 11:48:23;;;;;;;33.00;21.30;;;;;;;;;;5039464;28;20214;-84
2021/01/11 11:50:48;;;;;;;24.33;18.03;;;;;;;;;;5045202;28;20507;-83
2021/01/11 11:53:14;;;;;;;22.10;16.70;;;;;;;;;;5042080;28;20424;-83
2021/01/11 11:55:40;;;;;;;23.60;14.30;;;;;;;;;;5055929;28;20213;-84
2021/01/11 11:58:06;;;;;;;19.65;14.07;;;;;;;;;;5055850;28;20217;-84
2021/01/11 12:00:32;;;;;;;16.45;12.52;;;;;;;;;;5051810;28;20677;-84
2021/01/11 12:02:58;;;;;;;15.55;12.18;;;;;;;;;;5043955;28;20185;-88
2021/01/11 12:05:24;;;;;;;16.70;12.95;;;;;;;;;;5054184;28;20178;-84
2021/01/11 12:07:53;;;;;;;14.90;11.20;;;;;;;;;;5059173;28;20269;-86
2021/01/11 12:10:19;;;;;;;13.95;11.20;;;;;;;;;;5057183;28;20193;-84
2021/01/11 12:12:47;;;;;;;17.08;10.93;;;;;;;;;;5042035;28;20217;-84
2021/01/11 12:15:14;;;;;;;15.00;12.10;;;;;;;;;;5040732;28;20171;-85
2021/01/11 12:17:41;;;;;;;17.23;11.55;;;;;;;;;;5059603;28;20193;-83
2021/01/11 12:20:07;;;;;;;14.88;11.05;;;;;;;;;;5037290;28;20261;-86
2021/01/11 12:22:33;;;;;;;14.20;11.48;;;;;;;;;;5056967;28;20237;-84
2021/01/11 12:24:59;;;;;;;16.48;11.68;;;;;;;;;;5041322;28;20190;-85
2021/01/11 12:27:25;;;;;;;12.70;10.50;;;;;;;;;;5042395;28;20309;-85
2021/01/11 12:29:51;;;;;;;14.17;11.23;;;;;;;;;;5048057;28;20436;-85
2021/01/11 12:32:18;;;;;;;13.60;10.50;;;;;;;;;;5060286;28;20536;-85
2021/01/11 12:34:44;;;;;;;15.50;10.57;;;;;;;;;;5038224;28;20456;-85
2021/01/11 12:37:14;;;;;;;12.40;10.20;;;;;;;;;;5055892;28;20188;-84
2021/01/11 12:39:40;;;;;;;14.05;10.75;;;;;;;;;;5051178;28;20182;-87
2021/01/11 12:42:07;;;;;;;13.82;10.88;;;;;;;;;;5038004;28;20197;-86
2021/01/11 12:44:33;;;;;;;16.38;11.40;;;;;;;;;;5061975;28;20661;-85
2021/01/11 12:47:00;;;;;;;14.98;9.88;;;;;;;;;;5044768;28;20252;-85
2021/01/11 12:49:26;;;;;;;12.27;10.00;;;;;;;;;;5042464;28;20278;-85
2021/01/11 12:51:53;;;;;;;18.45;10.60;;;;;;;;;;5041844;28;20185;-84
2021/01/11 12:54:19;;;;;;;13.88;10.77;;;;;;;;;;5044361;28;20603;-84
2021/01/11 12:56:46;;;;;;;14.52;11.02;;;;;;;;;;5037986;28;21398;-85
2021/01/11 12:59:12;;;;;;;13.57;10.15;;;;;;;;;;5038303;28;20266;-84
2021/01/11 13:01:39;;;;;;;11.90;10.20;;;;;;;;;;5041480;28;20186;-84
2021/01/11 13:04:05;;;;;;;17.40;10.82;;;;;;;;;;5058978;28;20178;-86
2021/01/11 13:06:41;;;;;;;14.10;11.13;;;;;;;;;;5042613;28;20183;-88
2021/01/11 13:09:07;;;;;;;12.05;10.20;;;;;;;;;;5042748;28;20185;-85
2021/01/11 13:11:34;;;;;;;17.67;12.18;;;;;;;;;;5038308;28;20204;-87
2021/01/11 13:14:03;;;;;;;15.18;11.40;;;;;;;;;;5052233;28;20190;-85
2021/01/11 13:16:30;;;;;;;11.35;9.57;;;;;;;;;;5051367;28;20217;-85
2021/01/11 13:18:58;;;;;;;21.50;11.88;;;;;;;;;;5037016;28;20197;-83
2021/01/11 13:21:24;;;;;;;14.30;10.73;;;;;;;;;;5040214;28;20194;-87
2021/01/11 13:23:50;;;;;;;14.57;10.77;;;;;;;;;;5046327;28;20662;-84
2021/01/11 13:26:26;;;;;;;15.48;10.63;;;;;;;;;;5036317;28;20232;-85
2021/01/11 13:28:52;;;;;;;14.45;11.63;;;;;;;;;;5053642;28;20761;-85
2021/01/11 13:31:19;;;;;;;20.15;11.13;;;;;;;;;;5070430;28;20224;-86
2021/01/11 13:33:45;;;;;;;17.42;11.82;;;;;;;;;;5039619;28;20182;-86
2021/01/11 13:36:11;;;;;;;13.93;10.88;;;;;;;;;;5041127;28;20254;-85
2021/01/11 13:38:38;;;;;;;15.40;9.90;;;;;;;;;;5058316;28;20239;-86
2021/01/11 13:41:04;;;;;;;12.73;10.30;;;;;;;;;;5035323;28;20747;-85
2021/01/11 13:43:31;;;;;;;13.30;10.40;;;;;;;;;;5035334;28;20460;-86
2021/01/11 13:45:57;;;;;;;14.90;10.70;;;;;;;;;;5040042;28;20188;-84
2021/01/11 13:48:23;;;;;;;14.27;11.07;;;;;;;;;;5043103;28;20933;-84
2021/01/11 13:50:49;;;;;;;14.85;11.85;;;;;;;;;;5039357;28;20173;-85
2021/01/11 13:53:15;;;;;;;16.27;11.77;;;;;;;;;;5038451;28;20178;-87
2021/01/11 13:55:41;;;;;;;12.82;10.95;;;;;;;;;;5040587;28;20178;-84
2021/01/11 13:58:07;;;;;;;15.55;10.40;;;;;;;;;;5038432;28;20655;-86
2021/01/11 14:00:33;;;;;;;11.52;9.55;;;;;;;;;;5045088;28;20228;-84
2021/01/11 14:02:59;;;;;;;13.73;9.30;;;;;;;;;;5040510;28;20216;-84
2021/01/11 14:05:25;;;;;;;11.50;8.52;;;;;;;;;;5036364;28;20187;-84
2021/01/11 14:07:51;;;;;;;15.10;11.65;;;;;;;;;;5037617;28;20206;-84
2021/01/11 14:10:18;;;;;;;13.45;10.13;;;;;;;;;;5036550;28;20189;-86
2021/01/11 14:12:44;;;;;;;10.93;9.13;;;;;;;;;;5038457;28;20182;-86
2021/01/11 14:15:12;;;;;;;11.75;8.98;;;;;;;;;;5041568;28;20196;-86
2021/01/11 14:17:38;;;;;;;11.70;9.65;;;;;;;;;;5043139;28;20233;-87
2021/01/11 14:20:04;;;;;;;10.50;8.63;;;;;;;;;;5038551;28;20558;-87